Time;durP1;ratioP1;P1;durP2;ratioP2;P2;SDS_P1;SDS_P2;PMS_P1;PMS_P2;Temp;Humidity;BMP_temperature;BMP_pressure;BME280_temperature;BME280_humidity;BME280_pressure;Samples;Min_cycle;Max_cycle;Signal;HPM_P1;HPM_P2
2022/10/25 00:00:04;;;;;;;7.57;2.58;;;15.70;84.30;;;;;;5013977;28;20033;-66
2022/10/25 00:02:37;;;;;;;8.52;2.25;;;15.70;84.40;;;;;;5014753;28;20478;-66
2022/10/25 00:05:04;;;;;;;5.90;2.47;;;15.70;84.40;;;;;;5014645;28;20045;-66
2022/10/25 00:07:30;;;;;;;7.80;2.60;;;15.70;84.40;;;;;;5011860;28;20029;-65
2022/10/25 00:09:55;;;;;;;7.47;2.22;;;15.70;84.50;;;;;;5013831;28;20462;-66
2022/10/25 00:12:21;;;;;;;7.50;2.67;;;15.70;84.50;;;;;;5015178;28;20026;-66
2022/10/25 00:14:46;;;;;;;7.68;2.80;;;15.70;84.50;;;;;;5013341;28;20042;-65
2022/10/25 00:17:12;;;;;;;6.78;2.70;;;15.70;84.50;;;;;;5013535;28;20078;-65
2022/10/25 00:19:37;;;;;;;6.50;2.88;;;15.70;84.50;;;;;;5014323;28;20036;-65
2022/10/25 00:22:03;;;;;;;8.00;2.70;;;15.70;84.50;;;;;;5030420;28;20160;-66
2022/10/25 00:24:29;;;;;;;6.88;2.67;;;15.70;84.60;;;;;;5014906;28;20049;-65
2022/10/25 00:26:55;;;;;;;7.43;2.72;;;15.70;84.60;;;;;;5013031;28;20025;-65
2022/10/25 00:29:20;;;;;;;8.20;2.72;;;15.70;84.70;;;;;;5013149;28;20101;-65
2022/10/25 00:31:46;;;;;;;8.60;3.15;;;15.70;84.70;;;;;;5013318;28;20121;-66
2022/10/25 00:34:12;;;;;;;9.90;3.17;;;15.70;84.70;;;;;;5026510;28;20022;-66
2022/10/25 00:36:38;;;;;;;7.47;3.17;;;15.70;84.70;;;;;;5020267;28;20383;-65
2022/10/25 00:39:04;;;;;;;9.52;3.17;;;15.70;84.70;;;;;;5044439;28;20439;-66
2022/10/25 00:41:31;;;;;;;6.20;2.90;;;15.70;84.70;;;;;;5019894;28;20109;-65
2022/10/25 00:44:34;;;;;;;8.55;2.88;;;15.70;84.70;;;;;;5013755;28;20121;-66
2022/10/25 00:47:19;;;;;;;6.22;2.92;;;15.70;84.60;;;;;;5013021;28;20034;-65
2022/10/25 00:49:47;;;;;;;7.35;3.25;;;15.70;84.70;;;;;;5034002;28;20039;-65
2022/10/25 00:52:13;;;;;;;7.85;3.35;;;15.70;84.70;;;;;;5028284;28;20098;-65
2022/10/25 00:54:44;;;;;;;6.95;3.13;;;15.70;84.70;;;;;;5034363;28;20021;-66
2022/10/25 00:57:15;;;;;;;9.20;3.13;;;15.70;84.70;;;;;;5028430;28;20399;-65
2022/10/25 00:59:42;;;;;;;9.02;3.40;;;15.70;84.70;;;;;;5023284;28;20064;-65
2022/10/25 01:02:08;;;;;;;7.45;3.20;;;15.70;84.70;;;;;;5019525;28;20034;-65
2022/10/25 01:04:34;;;;;;;8.70;3.17;;;15.70;84.90;;;;;;5018791;28;20033;-66
2022/10/25 01:07:01;;;;;;;8.18;3.30;;;15.60;84.80;;;;;;5018543;28;20029;-66
2022/10/25 01:09:30;;;;;;;9.13;4.07;;;15.60;84.80;;;;;;5034119;28;20109;-66
2022/10/25 01:11:56;;;;;;;9.70;3.45;;;15.60;84.80;;;;;;5021164;28;20029;-65
2022/10/25 01:14:22;;;;;;;7.80;3.72;;;15.70;84.80;;;;;;5016877;28;20045;-65
2022/10/25 01:17:10;;;;;;;9.60;3.88;;;15.70;84.80;;;;;;5019322;28;20033;-66
2022/10/25 01:19:59;;;;;;;9.38;3.67;;;15.70;84.80;;;;;;5016936;28;20706;-65
2022/10/25 01:22:56;;;;;;;9.45;3.40;;;15.70;84.80;;;;;;5020509;28;20422;-65
2022/10/25 01:25:59;;;;;;;10.32;3.42;;;15.70;84.70;;;;;;5032893;28;20033;-65
2022/10/25 01:28:57;;;;;;;8.43;3.40;;;15.70;84.70;;;;;;5025060;28;20099;-65
2022/10/25 01:31:28;;;;;;;7.68;3.30;;;15.70;84.70;;;;;;5027807;28;20062;-65
2022/10/25 01:34:20;;;;;;;7.95;3.47;;;15.70;84.80;;;;;;5027723;28;20064;-65
2022/10/25 01:36:58;;;;;;;;;;;15.70;84.70;;;;;;5005345;28;20168;-65
2022/10/25 01:39:30;;;;;;;9.32;3.30;;;15.70;84.70;;;;;;5017679;28;20334;-65
2022/10/25 01:42:21;;;;;;;9.80;3.70;;;15.70;84.70;;;;;;4998897;28;20053;-65
2022/10/25 01:44:58;;;;;;;9.85;3.63;;;15.70;84.80;;;;;;5008627;28;20096;-65
2022/10/25 01:47:34;;;;;;;9.63;3.58;;;15.70;84.80;;;;;;5008602;28;20026;-65
2022/10/25 01:50:25;;;;;;;8.88;3.75;;;15.70;84.80;;;;;;5014148;28;20463;-65
2022/10/25 01:52:50;;;;;;;9.75;3.95;;;15.70;84.80;;;;;;5012692;28;20433;-65
2022/10/25 01:55:18;;;;;;;8.50;4.05;;;15.70;84.80;;;;;;5010564;28;20034;-65
2022/10/25 01:57:55;;;;;;;7.57;3.28;;;15.70;84.90;;;;;;5012542;28;20068;-65
2022/10/25 02:00:23;;;;;;;9.63;4.43;;;15.70;84.90;;;;;;5010466;28;20378;-65
2022/10/25 02:03:07;;;;;;;9.02;3.53;;;15.70;85.50;;;;;;5013327;28;20025;-65
2022/10/25 02:06:11;;;;;;;8.00;3.35;;;15.70;84.90;;;;;;5013545;28;20117;-65
2022/10/25 02:08:46;;;;;;;8.73;3.70;;;15.70;84.90;;;;;;5016777;28;20042;-65
2022/10/25 02:11:31;;;;;;;8.52;2.80;;;15.70;85.00;;;;;;5011804;28;20248;-65
2022/10/25 02:14:20;;;;;;;11.27;3.58;;;15.80;85.00;;;;;;5012008;28;20072;-65
2022/10/25 02:17:01;;;;;;;7.28;3.20;;;15.80;85.00;;;;;;5010508;28;20026;-65
2022/10/25 02:19:34;;;;;;;11.00;3.57;;;15.70;84.90;;;;;;5022727;28;20046;-65
2022/10/25 02:22:01;;;;;;;8.40;3.67;;;15.80;85.00;;;;;;5011313;28;20428;-65
2022/10/25 02:24:29;;;;;;;10.25;3.65;;;15.80;85.00;;;;;;5013278;28;20029;-65
2022/10/25 02:26:57;;;;;;;10.90;3.80;;;15.80;85.00;;;;;;5014393;28;20578;-65
2022/10/25 02:29:26;;;;;;;10.63;3.80;;;15.80;85.00;;;;;;4995005;28;20038;-65
2022/10/25 02:31:52;;;;;;;10.93;3.13;;;15.80;85.10;;;;;;5014645;28;20038;-65
2022/10/25 02:34:18;;;;;;;10.05;4.00;;;15.80;85.10;;;;;;5002437;28;20120;-65
2022/10/25 02:36:48;;;;;;;7.40;3.53;;;15.80;85.10;;;;;;5015178;28;20030;-65
2022/10/25 02:39:14;;;;;;;10.02;3.50;;;15.80;85.10;;;;;;5013054;28;20470;-65
2022/10/25 02:41:40;;;;;;;8.15;3.25;;;15.70;85.00;;;;;;5017375;28;20048;-65
2022/10/25 02:44:05;;;;;;;12.50;3.65;;;15.70;85.10;;;;;;5015135;28;20045;-65
2022/10/25 02:46:31;;;;;;;9.82;3.60;;;15.80;85.10;;;;;;5014370;28;20030;-65
2022/10/25 02:48:57;;;;;;;9.65;3.50;;;15.80;85.10;;;;;;5011876;28;20435;-65
2022/10/25 02:51:23;;;;;;;12.70;4.20;;;15.80;85.10;;;;;;5007234;28;20029;-65
2022/10/25 02:53:48;;;;;;;7.43;3.47;;;15.80;85.10;;;;;;5015790;28;20026;-65
2022/10/25 02:56:18;;;;;;;9.75;4.03;;;15.80;85.10;;;;;;5030498;28;20029;-65
2022/10/25 02:58:44;;;;;;;9.63;3.92;;;15.80;85.00;;;;;;5011033;28;20026;-65
2022/10/25 03:01:11;;;;;;;12.20;3.88;;;15.80;85.00;;;;;;5006111;28;20038;-65
2022/10/25 03:03:37;;;;;;;9.35;3.97;;;15.80;85.00;;;;;;5018391;28;20091;-65
2022/10/25 03:06:03;;;;;;;10.75;4.32;;;15.80;84.90;;;;;;5014698;28;20038;-66
2022/10/25 03:08:29;;;;;;;14.55;4.95;;;15.80;84.90;;;;;;5014495;28;20037;-65
2022/10/25 03:10:55;;;;;;;9.10;4.57;;;15.80;84.90;;;;;;5012015;28;20383;-65
2022/10/25 03:13:20;;;;;;;12.05;4.68;;;15.80;84.90;;;;;;5015007;28;20026;-65
2022/10/25 03:15:46;;;;;;;12.02;5.20;;;15.80;84.90;;;;;;5015122;28;20042;-65
2022/10/25 03:18:13;;;;;;;11.52;5.40;;;15.80;85.50;;;;;;5015616;28;20060;-65
2022/10/25 03:20:40;;;;;;;9.90;4.68;;;15.80;84.90;;;;;;5031898;28;20088;-65
2022/10/25 03:23:07;;;;;;;11.00;4.88;;;15.80;84.90;;;;;;5020104;28;20065;-65
2022/10/25 03:25:33;;;;;;;11.80;5.00;;;15.80;84.90;;;;;;5019824;28;20026;-65
2022/10/25 03:28:01;;;;;;;12.90;5.50;;;15.80;84.90;;;;;;5019599;28;20398;-65
2022/10/25 03:30:29;;;;;;;12.02;4.97;;;15.80;84.90;;;;;;5027979;28;20067;-65
2022/10/25 03:32:55;;;;;;;9.27;5.07;;;15.80;84.80;;;;;;5025003;28;20061;-66
2022/10/25 03:35:21;;;;;;;10.88;5.13;;;15.80;84.80;;;;;;5022410;28;20108;-65
2022/10/25 03:37:48;;;;;;;9.32;4.20;;;15.80;84.80;;;;;;5030206;28;20034;-65
2022/10/25 03:40:14;;;;;;;9.65;4.78;;;15.80;84.90;;;;;;5017623;28;20030;-65
2022/10/25 03:42:39;;;;;;;15.27;4.55;;;15.80;84.80;;;;;;5032319;28;20034;-65
2022/10/25 03:45:06;;;;;;;10.68;4.80;;;15.80;84.80;;;;;;5015888;28;20030;-65
2022/10/25 03:47:31;;;;;;;10.38;4.80;;;15.80;84.70;;;;;;5033022;28;20022;-65
2022/10/25 03:49:57;;;;;;;11.85;4.82;;;15.80;84.70;;;;;;5008831;28;20082;-66
2022/10/25 03:52:22;;;;;;;11.73;5.07;;;15.80;84.70;;;;;;5034354;28;20044;-65
2022/10/25 03:54:48;;;;;;;12.25;5.60;;;15.80;84.60;;;;;;5023069;28;20030;-65
2022/10/25 03:57:14;;;;;;;9.75;4.65;;;15.80;84.60;;;;;;5030571;28;20037;-65
2022/10/25 03:59:39;;;;;;;10.18;4.72;;;15.80;84.60;;;;;;5014549;28;20030;-65
2022/10/25 04:02:05;;;;;;;10.23;4.65;;;15.80;84.60;;;;;;5014147;28;20113;-65
2022/10/25 04:04:31;;;;;;;10.95;4.70;;;15.80;84.60;;;;;;5010346;28;20080;-65
2022/10/25 04:06:56;;;;;;;13.10;4.57;;;15.80;84.70;;;;;;5015019;28;20528;-65
2022/10/25 04:09:22;;;;;;;11.27;4.68;;;15.80;84.60;;;;;;5014746;28;20109;-65
2022/10/25 04:11:48;;;;;;;11.27;5.00;;;15.80;84.60;;;;;;5014997;28;20351;-65
2022/10/25 04:14:13;;;;;;;9.63;5.15;;;15.80;84.60;;;;;;5013787;28;20034;-65
2022/10/25 04:16:39;;;;;;;12.57;5.03;;;15.80;84.60;;;;;;5030705;28;20033;-65
2022/10/25 04:19:05;;;;;;;9.23;4.45;;;15.80;84.60;;;;;;4993906;28;20054;-66
2022/10/25 04:21:30;;;;;;;11.55;4.70;;;15.80;84.50;;;;;;5007185;28;20037;-65
2022/10/25 04:23:56;;;;;;;13.18;4.40;;;15.80;84.50;;;;;;5014831;28;20025;-65
2022/10/25 04:26:21;;;;;;;10.60;4.78;;;15.80;84.50;;;;;;5015438;28;20446;-65
2022/10/25 04:28:52;;;;;;;12.38;4.47;;;15.80;84.50;;;;;;5014052;28;20038;-65
2022/10/25 04:31:18;;;;;;;9.50;4.27;;;15.80;84.50;;;;;;5018281;28;20044;-65
2022/10/25 04:33:47;;;;;;;11.60;4.35;;;15.80;84.50;;;;;;5018663;28;20617;-65
2022/10/25 04:36:12;;;;;;;10.07;4.85;;;15.80;84.50;;;;;;5024144;28;20029;-65
2022/10/25 04:38:38;;;;;;;8.95;4.55;;;15.80;84.50;;;;;;5012518;28;20104;-66
2022/10/25 04:41:03;;;;;;;12.15;5.03;;;15.80;84.50;;;;;;5013019;28;20050;-65
2022/10/25 04:43:29;;;;;;;9.88;4.25;;;15.80;84.50;;;;;;5011383;28;20088;-65
2022/10/25 04:45:59;;;;;;;8.00;3.80;;;15.80;84.40;;;;;;5012268;28;20045;-66
2022/10/25 04:48:25;;;;;;;9.23;4.18;;;15.80;84.50;;;;;;5011723;28;20026;-66
2022/10/25 04:50:50;;;;;;;10.82;4.00;;;15.80;84.50;;;;;;5011776;28;20030;-66
2022/10/25 04:53:16;;;;;;;11.20;4.30;;;15.80;84.40;;;;;;5009546;28;20409;-65
2022/10/25 04:55:42;;;;;;;8.27;3.92;;;15.80;84.40;;;;;;5010886;28;20409;-66
2022/10/25 04:58:07;;;;;;;9.57;4.57;;;15.80;84.30;;;;;;5011686;28;20038;-66
2022/10/25 05:00:33;;;;;;;11.18;4.78;;;15.80;84.30;;;;;;5010621;28;20033;-65
2022/10/25 05:02:58;;;;;;;9.40;4.72;;;15.80;84.30;;;;;;5012974;28;20025;-66
2022/10/25 05:05:24;;;;;;;12.13;4.93;;;15.80;84.30;;;;;;5010923;28;20037;-66
2022/10/25 05:07:50;;;;;;;9.48;4.90;;;15.80;84.30;;;;;;5012014;28;20030;-67
2022/10/25 05:10:16;;;;;;;10.82;4.18;;;15.80;84.30;;;;;;5010661;28;20569;-65
2022/10/25 05:12:42;;;;;;;10.27;5.18;;;15.70;84.20;;;;;;5011842;28;21412;-65
2022/10/25 05:15:08;;;;;;;9.35;4.43;;;15.70;84.20;;;;;;5011441;28;20113;-66
2022/10/25 05:17:34;;;;;;;10.90;4.47;;;15.70;84.20;;;;;;5012503;28;20048;-66
2022/10/25 05:20:00;;;;;;;15.15;4.97;;;15.70;84.20;;;;;;5014019;28;20033;-66
2022/10/25 05:22:25;;;;;;;12.00;4.88;;;15.70;84.20;;;;;;5011772;28;20528;-66
2022/10/25 05:24:51;;;;;;;10.45;4.68;;;15.70;84.20;;;;;;5005343;28;20076;-66
2022/10/25 05:27:17;;;;;;;10.40;5.30;;;15.70;84.20;;;;;;5009112;28;20028;-66
2022/10/25 05:29:43;;;;;;;10.82;4.72;;;15.70;84.30;;;;;;4996283;28;20030;-66
2022/10/25 05:32:09;;;;;;;11.07;4.40;;;15.70;84.20;;;;;;5017010;28;20026;-66
2022/10/25 05:34:35;;;;;;;12.70;5.53;;;15.70;84.20;;;;;;5029440;28;20030;-66
2022/10/25 05:37:00;;;;;;;11.50;4.72;;;15.70;84.10;;;;;;5019236;28;20026;-66
2022/10/25 05:39:26;;;;;;;8.43;3.70;;;15.70;84.10;;;;;;5025808;28;20454;-66
2022/10/25 05:41:52;;;;;;;8.73;4.03;;;15.70;84.10;;;;;;5013088;28;20037;-66
2022/10/25 05:44:17;;;;;;;9.35;3.88;;;15.70;84.10;;;;;;5020275;28;20025;-66
2022/10/25 05:46:44;;;;;;;8.35;4.30;;;15.70;84.10;;;;;;5024319;28;20025;-66
2022/10/25 05:49:10;;;;;;;10.25;4.65;;;15.70;84.10;;;;;;5028335;28;20439;-66
2022/10/25 05:51:36;;;;;;;9.02;4.18;;;15.70;84.10;;;;;;5026698;28;20026;-66
2022/10/25 05:54:06;;;;;;;9.68;4.32;;;15.70;84.10;;;;;;5034303;28;20025;-66
2022/10/25 05:56:33;;;;;;;6.78;3.28;;;15.60;84.10;;;;;;5015426;28;20103;-66
2022/10/25 05:59:09;;;;;;;8.70;3.63;;;15.60;84.20;;;;;;5012914;28;20125;-66
2022/10/25 06:01:37;;;;;;;10.70;4.28;;;15.60;84.10;;;;;;5016267;28;20026;-66
2022/10/25 06:04:03;;;;;;;9.20;3.60;;;15.60;84.00;;;;;;5014303;28;20041;-66
2022/10/25 06:06:29;;;;;;;9.95;3.85;;;15.70;84.10;;;;;;5022614;28;20026;-66
2022/10/25 06:08:59;;;;;;;10.32;3.55;;;15.60;84.00;;;;;;5028109;28;20026;-66
2022/10/25 06:11:26;;;;;;;9.75;3.63;;;15.60;84.10;;;;;;5025345;28;20034;-66
2022/10/25 06:13:51;;;;;;;7.20;3.20;;;15.60;84.10;;;;;;5020422;28;20030;-67
2022/10/25 06:16:19;;;;;;;11.02;4.00;;;15.60;84.10;;;;;;5016885;28;20037;-67
2022/10/25 06:18:44;;;;;;;10.27;3.72;;;15.60;84.10;;;;;;5027180;28;20164;-67
2022/10/25 06:21:16;;;;;;;10.95;4.25;;;15.60;84.10;;;;;;5028672;28;20213;-66
2022/10/25 06:23:42;;;;;;;8.68;3.83;;;15.60;84.10;;;;;;5029489;28;20029;-67
2022/10/25 06:26:14;;;;;;;13.60;4.25;;;15.60;84.10;;;;;;5043127;28;20132;-66
2022/10/25 06:28:40;;;;;;;9.20;4.35;;;15.60;84.10;;;;;;5019692;28;20049;-67
2022/10/25 06:31:12;;;;;;;8.23;3.88;;;15.60;84.10;;;;;;5024477;28;20048;-66
2022/10/25 06:33:38;;;;;;;9.27;4.05;;;15.50;84.10;;;;;;5021962;28;20025;-67
2022/10/25 06:36:06;;;;;;;9.75;4.30;;;15.50;84.10;;;;;;5030240;28;20061;-67
2022/10/25 06:38:32;;;;;;;11.23;4.65;;;15.50;84.10;;;;;;5024585;28;20030;-66
2022/10/25 06:41:00;;;;;;;8.15;3.47;;;15.50;84.10;;;;;;5015536;28;20168;-65
2022/10/25 06:43:26;;;;;;;11.55;4.25;;;15.50;84.10;;;;;;5019322;28;20030;-67
2022/10/25 06:45:52;;;;;;;7.53;3.70;;;15.60;84.10;;;;;;5025819;28;20065;-68
2022/10/25 06:48:18;;;;;;;8.38;3.95;;;15.50;84.00;;;;;;5035613;28;20032;-66
2022/10/25 06:50:44;;;;;;;10.60;4.63;;;15.60;84.10;;;;;;5036100;28;20021;-67
2022/10/25 06:53:09;;;;;;;12.57;4.20;;;15.50;84.00;;;;;;5036930;28;20040;-67
2022/10/25 06:55:36;;;;;;;11.93;4.40;;;15.60;84.10;;;;;;5026733;28;20044;-66
2022/10/25 06:58:01;;;;;;;9.65;4.00;;;15.60;84.10;;;;;;5017127;28;20033;-67
2022/10/25 07:00:27;;;;;;;7.95;4.00;;;15.50;84.00;;;;;;5012751;28;20053;-67
2022/10/25 07:02:55;;;;;;;10.18;3.90;;;15.50;83.90;;;;;;5009650;28;20160;-67
2022/10/25 07:05:20;;;;;;;9.88;3.72;;;15.60;83.90;;;;;;5012872;28;20517;-67
2022/10/25 07:07:46;;;;;;;11.10;4.00;;;15.60;83.90;;;;;;5007465;28;20033;-67
2022/10/25 07:10:12;;;;;;;8.52;4.00;;;15.50;83.90;;;;;;5031321;28;20057;-67
2022/10/25 07:12:37;;;;;;;9.75;3.90;;;15.60;83.90;;;;;;5012815;28;20085;-67
2022/10/25 07:15:03;;;;;;;8.13;3.78;;;15.60;83.90;;;;;;5016968;28;20033;-66
2022/10/25 07:17:29;;;;;;;10.00;4.20;;;15.60;83.90;;;;;;5012156;28;20137;-67
2022/10/25 07:19:56;;;;;;;10.13;4.18;;;15.60;83.90;;;;;;5015825;28;20133;-66
2022/10/25 07:22:23;;;;;;;9.80;3.92;;;15.60;83.90;;;;;;5016836;28;20022;-67
2022/10/25 07:24:48;;;;;;;9.30;4.10;;;15.60;83.90;;;;;;5016549;28;20029;-67
2022/10/25 07:27:14;;;;;;;11.18;3.92;;;15.60;83.80;;;;;;5014929;28;20028;-66
2022/10/25 07:29:40;;;;;;;11.75;4.45;;;15.60;83.90;;;;;;5016604;28;20144;-67
2022/10/25 07:32:07;;;;;;;9.15;4.47;;;15.60;83.80;;;;;;5016606;28;20038;-66
2022/10/25 07:34:32;;;;;;;10.38;4.78;;;15.70;83.80;;;;;;5011970;28;20038;-66
2022/10/25 07:36:58;;;;;;;10.90;4.63;;;15.70;83.70;;;;;;5030267;28;20030;-66
2022/10/25 07:39:24;;;;;;;10.32;4.35;;;15.70;83.60;;;;;;5030121;28;20378;-66
2022/10/25 07:41:50;;;;;;;9.65;4.57;;;15.80;83.50;;;;;;5023501;28;20053;-66
2022/10/25 07:44:16;;;;;;;11.27;4.80;;;15.80;83.40;;;;;;5012218;28;20045;-66
2022/10/25 07:46:42;;;;;;;11.00;4.60;;;15.90;83.30;;;;;;5025475;28;20365;-66
2022/10/25 07:49:07;;;;;;;9.88;4.38;;;15.90;83.20;;;;;;5025344;28;20033;-66
2022/10/25 07:51:33;;;;;;;8.80;4.22;;;15.90;83.00;;;;;;5025694;28;20411;-66
2022/10/25 07:53:58;;;;;;;11.98;4.38;;;16.00;83.00;;;;;;5024525;28;20021;-66
2022/10/25 07:56:24;;;;;;;11.00;4.95;;;16.00;83.00;;;;;;5018625;28;20414;-66
2022/10/25 07:58:51;;;;;;;10.10;4.40;;;16.00;83.00;;;;;;5015361;28;20057;-66
2022/10/25 08:01:25;;;;;;;8.80;4.50;;;16.00;83.10;;;;;;5015295;28;20445;-66
2022/10/25 08:03:52;;;;;;;8.52;4.28;;;16.00;83.00;;;;;;5012813;28;20038;-66
2022/10/25 08:06:19;;;;;;;12.02;4.68;;;16.00;83.00;;;;;;5012858;28;20390;-66
2022/10/25 08:08:44;;;;;;;13.55;5.13;;;16.00;82.90;;;;;;5016594;28;20359;-67
2022/10/25 08:11:10;;;;;;;11.50;5.13;;;16.00;82.80;;;;;;5028420;28;20041;-66
2022/10/25 08:13:37;;;;;;;10.43;5.03;;;16.10;82.70;;;;;;4998921;28;20041;-66
2022/10/25 08:16:03;;;;;;;15.00;4.75;;;16.20;82.60;;;;;;5015522;28;20080;-66
2022/10/25 08:18:29;;;;;;;10.95;4.90;;;16.20;82.50;;;;;;5016492;28;20052;-67
2022/10/25 08:20:55;;;;;;;10.50;4.95;;;16.20;82.50;;;;;;5015065;28;20442;-67
2022/10/25 08:23:22;;;;;;;10.70;5.32;;;16.10;82.40;;;;;;5008759;28;20104;-66
2022/10/25 08:25:48;;;;;;;11.45;5.38;;;16.10;82.50;;;;;;5014156;28;20040;-66
2022/10/25 08:28:13;;;;;;;9.63;4.85;;;16.10;82.60;;;;;;5015424;28;20026;-66
2022/10/25 08:30:40;;;;;;;14.05;5.38;;;16.10;82.60;;;;;;5014475;28;20022;-67
2022/10/25 08:33:05;;;;;;;12.13;4.72;;;16.10;82.50;;;;;;5014439;28;20081;-67
2022/10/25 08:35:31;;;;;;;11.15;4.95;;;16.10;82.50;;;;;;5013702;28;20025;-66
2022/10/25 08:38:01;;;;;;;10.88;5.75;;;16.20;82.50;;;;;;5011048;28;20109;-66
2022/10/25 08:40:43;;;;;;;9.95;5.80;;;16.30;82.40;;;;;;5008869;28;20033;-67
2022/10/25 08:43:39;;;;;;;11.80;5.63;;;16.30;82.30;;;;;;5013760;28;20096;-67
2022/10/25 08:46:10;;;;;;;14.02;6.05;;;16.40;82.00;;;;;;5014373;28;20025;-67
2022/10/25 08:48:40;;;;;;;13.00;6.53;;;16.50;81.80;;;;;;5014100;28;20422;-66
2022/10/25 08:51:30;;;;;;;15.20;7.47;;;16.70;81.50;;;;;;5014771;28;20502;-67
2022/10/25 08:53:59;;;;;;;12.82;7.60;;;16.80;81.10;;;;;;5023851;28;20140;-67
2022/10/25 08:56:27;;;;;;;11.68;7.05;;;16.80;81.00;;;;;;5031589;28;20037;-67
2022/10/25 08:58:59;;;;;;;11.77;7.45;;;16.80;80.90;;;;;;5025631;28;20036;-66
2022/10/25 09:01:43;;;;;;;13.13;7.43;;;16.90;80.90;;;;;;5011275;28;20034;-66
2022/10/25 09:04:09;;;;;;;15.48;8.02;;;16.90;80.80;;;;;;5006452;28;20022;-67
2022/10/25 09:06:49;;;;;;;14.32;8.48;;;16.80;80.80;;;;;;5010308;28;20120;-69
2022/10/25 09:09:15;;;;;;;12.32;8.18;;;16.80;80.80;;;;;;5011027;28;20065;-66
2022/10/25 09:11:59;;;;;;;16.90;10.73;;;16.70;80.90;;;;;;5009807;28;20451;-67
2022/10/25 09:14:58;;;;;;;14.80;10.00;;;16.70;80.90;;;;;;5008670;28;20462;-66
2022/10/25 09:17:40;;;;;;;16.65;9.02;;;16.60;80.90;;;;;;5015358;28;20022;-66
2022/10/25 09:20:26;;;;;;;;;;;16.60;81.00;;;;;;5012933;28;20373;-66
2022/10/25 09:23:30;;;;;;;13.88;7.70;;;16.60;81.20;;;;;;5012096;28;19909;-66
2022/10/25 09:26:03;;;;;;;14.80;7.97;;;16.60;81.10;;;;;;5014654;28;20092;-66
2022/10/25 09:29:01;;;;;;;16.15;8.57;;;16.60;81.10;;;;;;5012724;28;20022;-68
2022/10/25 09:31:31;;;;;;;15.20;8.60;;;16.60;81.00;;;;;;5008794;28;20101;-66
2022/10/25 09:34:01;;;;;;;14.73;8.82;;;16.70;81.00;;;;;;5009158;28;20021;-66
2022/10/25 09:36:32;;;;;;;11.63;8.20;;;16.70;81.00;;;;;;5006407;28;20029;-66
2022/10/25 09:39:04;;;;;;;13.88;8.88;;;16.70;80.90;;;;;;5024634;28;20436;-66
2022/10/25 09:41:36;;;;;;;14.20;8.63;;;16.70;80.80;;;;;;5013570;28;20026;-66
2022/10/25 09:44:24;;;;;;;14.95;8.75;;;16.70;80.70;;;;;;5018008;28;20048;-66
2022/10/25 09:47:01;;;;;;;13.15;8.88;;;16.80;80.70;;;;;;5012871;28;20030;-66
2022/10/25 09:50:11;;;;;;;13.38;8.32;;;16.80;80.60;;;;;;5002400;28;20033;-67
2022/10/25 09:52:53;;;;;;;14.57;9.55;;;16.80;80.50;;;;;;4975853;28;20042;-66
2022/10/25 09:55:47;;;;;;;13.98;8.68;;;16.70;80.30;;;;;;4959908;28;20062;-68
2022/10/25 09:58:25;;;;;;;14.05;8.85;;;16.80;80.30;;;;;;4964406;28;20034;-67
2022/10/25 10:00:53;;;;;;;16.35;8.95;;;16.90;80.30;;;;;;4971965;28;20039;-67
2022/10/25 10:03:20;;;;;;;14.88;9.13;;;16.90;80.00;;;;;;4956033;28;20153;-67
2022/10/25 10:05:54;;;;;;;13.07;8.90;;;16.90;80.00;;;;;;4957756;28;20065;-67
2022/10/25 10:08:20;;;;;;;12.05;8.13;;;17.00;80.10;;;;;;4957865;28;20061;-67
2022/10/25 10:10:48;;;;;;;14.27;9.35;;;17.00;80.10;;;;;;4975450;28;20499;-67
2022/10/25 10:13:27;;;;;;;13.98;9.35;;;17.00;80.20;;;;;;4960208;28;20081;-67
2022/10/25 10:16:10;;;;;;;13.93;8.45;;;17.00;80.20;;;;;;4955773;28;20057;-66
2022/10/25 10:18:36;;;;;;;12.05;8.85;;;16.90;80.10;;;;;;4976799;28;20078;-67
2022/10/25 10:21:19;;;;;;;12.88;8.32;;;16.90;80.10;;;;;;4976785;28;20061;-66
2022/10/25 10:23:54;;;;;;;14.90;8.50;;;17.00;80.10;;;;;;4976939;28;20043;-66
2022/10/25 10:26:33;;;;;;;13.55;8.55;;;17.00;80.10;;;;;;4975856;28;20085;-66
2022/10/25 10:29:20;;;;;;;13.90;8.38;;;17.00;80.00;;;;;;5011104;28;20049;-66
2022/10/25 10:31:59;;;;;;;13.15;8.48;;;16.90;80.00;;;;;;5010108;28;20034;-66
2022/10/25 10:34:39;;;;;;;13.82;9.07;;;16.90;80.00;;;;;;5017700;28;20022;-66
2022/10/25 10:37:11;;;;;;;14.87;8.30;;;16.90;80.00;;;;;;5017607;28;20026;-66
2022/10/25 10:39:46;;;;;;;;;;;16.90;79.90;;;;;;5016904;28;20152;-66
2022/10/25 10:42:17;;;;;;;12.18;7.43;;;17.00;79.90;;;;;;5016464;28;20301;-66
2022/10/25 10:45:10;;;;;;;11.43;7.20;;;17.10;79.70;;;;;;5016670;28;20037;-66
2022/10/25 10:47:48;;;;;;;16.08;7.40;;;17.20;79.50;;;;;;5017696;28;20048;-66
2022/10/25 10:50:20;;;;;;;13.10;8.52;;;17.30;79.20;;;;;;5017129;28;20049;-66
2022/10/25 10:52:58;;;;;;;12.05;8.38;;;17.40;79.00;;;;;;5017243;28;20034;-66
2022/10/25 10:55:45;;;;;;;13.65;7.80;;;17.50;78.90;;;;;;5012613;28;20039;-66
2022/10/25 10:58:16;;;;;;;15.63;7.95;;;17.60;78.40;;;;;;5011608;28;20034;-66
2022/10/25 11:01:03;;;;;;;10.90;7.40;;;17.70;78.20;;;;;;5016335;28;20370;-67
2022/10/25 11:03:40;;;;;;;12.70;7.90;;;17.80;78.00;;;;;;5016096;28;20169;-66
2022/10/25 11:06:26;;;;;;;12.48;7.22;;;18.00;77.60;;;;;;5016748;28;20129;-66
2022/10/25 11:09:19;;;;;;;14.50;7.82;;;18.00;77.50;;;;;;5016203;28;20037;-66
2022/10/25 11:12:03;;;;;;;12.35;7.20;;;18.00;77.20;;;;;;4997160;28;20022;-66
2022/10/25 11:14:28;;;;;;;11.80;7.22;;;17.90;77.10;;;;;;5015290;28;20041;-66
2022/10/25 11:17:20;;;;;;;13.23;7.13;;;17.90;77.20;;;;;;5015245;28;20382;-66
2022/10/25 11:19:54;;;;;;;9.98;6.10;;;17.90;77.10;;;;;;5032332;28;20367;-66
2022/10/25 11:23:06;;;;;;;11.27;6.65;;;17.80;77.20;;;;;;5034932;28;20048;-66
2022/10/25 11:25:45;;;;;;;11.60;5.97;;;17.70;77.20;;;;;;5024190;28;20438;-66
2022/10/25 11:28:38;;;;;;;12.27;7.18;;;17.70;77.30;;;;;;5036770;28;20481;-63
2022/10/25 11:31:27;;;;;;;10.90;6.55;;;17.70;77.40;;;;;;5021034;28;20113;-63
2022/10/25 11:34:47;;;;;;;13.10;7.03;;;17.60;77.40;;;;;;5036254;28;20048;-63
2022/10/25 11:37:26;;;;;;;11.88;6.25;;;17.50;77.50;;;;;;5014595;28;20120;-63
2022/10/25 11:40:15;;;;;;;11.98;6.82;;;17.50;77.60;;;;;;5015158;28;20033;-63
2022/10/25 11:42:49;;;;;;;11.68;6.70;;;17.50;77.50;;;;;;4997992;28;20042;-63
2022/10/25 11:45:26;;;;;;;9.73;6.13;;;17.40;77.50;;;;;;4994666;28;20057;-63
2022/10/25 11:48:12;;;;;;;10.32;5.78;;;17.40;77.60;;;;;;5014849;28;20034;-63
2022/10/25 11:50:50;;;;;;;11.45;6.32;;;17.30;77.60;;;;;;4997932;28;20053;-63
2022/10/25 11:53:46;;;;;;;12.23;6.88;;;17.40;77.70;;;;;;4997470;28;20468;-63
2022/10/25 11:56:34;;;;;;;10.07;5.88;;;17.40;77.60;;;;;;4958264;28;20437;-63
2022/10/25 11:59:03;;;;;;;11.45;6.03;;;17.40;77.50;;;;;;4951281;29;20404;-63
2022/10/25 12:02:06;;;;;;;15.27;6.63;;;17.40;77.40;;;;;;4952387;29;20036;-63
2022/10/25 12:04:52;;;;;;;10.48;5.43;;;17.50;77.20;;;;;;4971216;28;20058;-63
2022/10/25 12:07:25;;;;;;;9.95;5.75;;;17.70;76.90;;;;;;4971679;28;20047;-63
2022/10/25 12:10:06;;;;;;;10.35;5.72;;;17.60;76.60;;;;;;4972034;28;20039;-63
2022/10/25 12:12:55;;;;;;;11.25;5.90;;;17.70;76.60;;;;;;4952435;29;20452;-63
2022/10/25 12:15:39;;;;;;;9.60;5.63;;;17.70;76.40;;;;;;4943435;29;20472;-63
2022/10/25 12:18:08;;;;;;;13.27;6.03;;;17.70;76.50;;;;;;4942168;29;20441;-63
2022/10/25 12:20:35;;;;;;;9.93;5.70;;;17.70;76.60;;;;;;4949683;29;20130;-63
2022/10/25 12:23:04;;;;;;;9.65;5.97;;;17.70;76.60;;;;;;4944834;29;20032;-63
2022/10/25 12:25:46;;;;;;;13.48;6.20;;;17.60;76.70;;;;;;4950919;29;20464;-63
2022/10/25 12:28:30;;;;;;;13.48;5.63;;;17.60;76.70;;;;;;4942177;29;20418;-63
2022/10/25 12:31:00;;;;;;;11.73;5.50;;;17.60;76.70;;;;;;4954330;29;20162;-62
2022/10/25 12:33:45;;;;;;;10.10;5.28;;;17.60;76.70;;;;;;4991594;28;20046;-62
2022/10/25 12:36:29;;;;;;;11.48;5.53;;;17.60;76.60;;;;;;5017858;28;20370;-63
2022/10/25 12:38:59;;;;;;;11.32;4.70;;;17.60;76.50;;;;;;5020080;28;20030;-62
2022/10/25 12:41:29;;;;;;;11.82;5.05;;;17.60;76.50;;;;;;5015658;28;20404;-63
2022/10/25 12:44:32;;;;;;;8.65;4.85;;;17.60;76.30;;;;;;5014466;28;20506;-63
2022/10/25 12:47:20;;;;;;;9.50;4.95;;;17.70;76.20;;;;;;5015050;28;20041;-63
2022/10/25 12:50:21;;;;;;;11.20;5.72;;;17.60;76.20;;;;;;5015112;28;20025;-63
2022/10/25 12:53:11;;;;;;;9.85;5.40;;;17.60;76.30;;;;;;5015725;28;20065;-62
2022/10/25 12:55:53;;;;;;;10.73;5.00;;;17.50;76.40;;;;;;5002326;28;20391;-63
2022/10/25 12:58:37;;;;;;;9.95;4.78;;;17.60;76.40;;;;;;4998609;28;20056;-62
2022/10/25 13:01:19;;;;;;;9.18;4.20;;;17.60;76.30;;;;;;5017115;28;20042;-63
2022/10/25 13:04:01;;;;;;;9.77;4.45;;;17.70;76.10;;;;;;5003204;28;20125;-64
2022/10/25 13:06:32;;;;;;;8.52;4.18;;;17.70;76.00;;;;;;4995549;28;20097;-62